Time;durP1;ratioP1;P1;durP2;ratioP2;P2;SDS_P1;SDS_P2;PMS_P1;PMS_P2;Temp;Humidity;BMP_temperature;BMP_pressure;BME280_temperature;BME280_humidity;BME280_pressure;Samples;Min_cycle;Max_cycle;Signal;HPM_P1;HPM_P2
2022/07/20 00:01:17;;;;;;;7.97;4.67;;;21.60;1.00;;;;;;5054060;28;20581;-75
2022/07/20 00:03:46;;;;;;;5.73;5.00;;;21.70;1.00;;;;;;5053715;28;20270;-75
2022/07/20 00:06:13;;;;;;;6.30;4.90;;;21.70;1.00;;;;;;5054365;28;20500;-75
2022/07/20 00:11:23;;;;;;;5.13;4.43;;;21.70;1.00;;;;;;5054199;28;20463;-68
2022/07/20 00:13:57;;;;;;;5.47;5.00;;;21.70;1.00;;;;;;5053451;28;20417;-75
2022/07/20 00:16:25;;;;;;;5.93;4.83;;;21.70;1.00;;;;;;5053664;28;20752;-75
2022/07/20 00:18:51;;;;;;;4.63;3.90;;;21.60;1.00;;;;;;5054014;28;20409;-68
2022/07/20 00:21:17;;;;;;;7.50;4.33;;;21.60;1.00;;;;;;5054039;28;20406;-75
2022/07/20 00:23:43;;;;;;;9.47;4.60;;;21.70;1.00;;;;;;5053256;28;20478;-67
2022/07/20 00:26:10;;;;;;;4.80;4.40;;;21.70;1.00;;;;;;5054028;28;20197;-67
2022/07/20 00:28:36;;;;;;;6.00;4.77;;;21.60;1.00;;;;;;5053926;28;20193;-75
2022/07/20 00:31:03;;;;;;;6.40;5.13;;;21.70;1.00;;;;;;5053641;28;20792;-70
2022/07/20 00:33:29;;;;;;;5.17;4.57;;;21.70;1.00;;;;;;5053046;28;20467;-68
2022/07/20 00:35:55;;;;;;;5.93;5.10;;;21.80;1.00;;;;;;5053389;28;20405;-67
2022/07/20 00:42:26;;;;;;;5.90;4.70;;;21.80;1.00;;;;;;5053261;28;20443;-75
2022/07/20 00:44:52;;;;;;;11.53;5.13;;;21.80;1.00;;;;;;5053476;28;20449;-68
2022/07/20 00:47:18;;;;;;;6.13;4.70;;;21.80;1.00;;;;;;5053445;28;20768;-75
2022/07/20 00:49:44;;;;;;;4.90;4.40;;;21.80;1.00;;;;;;5053558;28;20812;-75
2022/07/20 00:52:10;;;;;;;5.23;4.17;;;21.70;1.00;;;;;;5052936;28;20489;-74
2022/07/20 00:54:48;;;;;;;6.30;5.10;;;21.70;1.00;;;;;;5053126;28;20183;-67
2022/07/20 00:57:15;;;;;;;5.73;5.13;;;21.70;1.00;;;;;;5053452;28;20405;-75
2022/07/20 00:59:42;;;;;;;5.40;4.30;;;21.70;1.00;;;;;;5053506;28;20404;-68
2022/07/20 01:02:08;;;;;;;5.10;4.60;;;21.70;1.00;;;;;;5053496;28;20476;-67
2022/07/20 01:04:34;;;;;;;5.80;4.83;;;21.70;1.00;;;;;;5051808;28;20926;-75
2022/07/20 01:07:00;;;;;;;6.63;5.20;;;21.70;1.00;;;;;;5052229;28;20174;-67
2022/07/20 01:09:26;;;;;;;5.57;4.80;;;21.70;1.00;;;;;;5053333;28;20413;-75
2022/07/20 01:11:52;;;;;;;5.83;5.33;;;21.70;1.00;;;;;;5052896;28;20492;-68
2022/07/20 01:14:18;;;;;;;6.40;5.10;;;21.60;1.00;;;;;;5052376;28;20456;-67
2022/07/20 01:16:44;;;;;;;6.10;5.23;;;21.60;1.00;;;;;;5053451;28;20186;-75
2022/07/20 01:19:10;;;;;;;4.60;4.20;;;21.60;1.00;;;;;;5053316;28;20402;-75
2022/07/20 01:21:43;;;;;;;5.20;4.70;;;21.60;1.00;;;;;;5053145;28;20754;-68
2022/07/20 01:24:11;;;;;;;9.87;4.67;;;21.70;1.00;;;;;;5051450;28;20440;-75
2022/07/20 01:26:41;;;;;;;7.63;5.37;;;21.60;1.00;;;;;;5053208;28;20466;-74
2022/07/20 01:29:08;;;;;;;6.20;5.20;;;21.60;1.00;;;;;;5053170;28;20405;-75
2022/07/20 01:31:34;;;;;;;6.73;5.03;;;21.60;1.00;;;;;;5052478;28;20456;-75
2022/07/20 01:34:00;;;;;;;7.10;5.37;;;21.60;1.00;;;;;;5052351;28;20418;-67
2022/07/20 01:36:26;;;;;;;6.80;5.60;;;21.60;1.00;;;;;;5052972;28;20217;-67
2022/07/20 01:38:52;;;;;;;9.63;5.37;;;21.60;1.00;;;;;;5051774;28;20494;-75
2022/07/20 01:41:19;;;;;;;7.03;5.37;;;21.60;1.00;;;;;;5053027;28;20213;-67
2022/07/20 01:43:45;;;;;;;6.57;5.03;;;21.60;1.00;;;;;;5052174;28;20426;-75
2022/07/20 01:46:11;;;;;;;5.20;4.70;;;21.60;1.00;;;;;;5053355;28;20437;-75
2022/07/20 01:48:37;;;;;;;5.87;4.47;;;21.50;1.00;;;;;;5051224;28;20457;-75
2022/07/20 01:51:03;;;;;;;5.57;4.43;;;21.50;1.00;;;;;;5052905;28;20286;-75
2022/07/20 01:53:29;;;;;;;6.90;6.20;;;21.50;1.00;;;;;;5053852;28;20399;-74
2022/07/20 01:55:56;;;;;;;5.93;5.33;;;21.50;1.00;;;;;;5056610;28;20441;-74
2022/07/20 01:58:22;;;;;;;5.80;5.00;;;21.50;1.00;;;;;;5056927;28;20397;-67
2022/07/20 02:00:48;;;;;;;7.40;5.50;;;21.40;1.00;;;;;;5056854;28;20889;-75
2022/07/20 02:03:14;;;;;;;5.60;5.07;;;21.40;1.00;;;;;;5055672;28;20412;-68
2022/07/20 02:05:40;;;;;;;5.83;5.00;;;21.40;1.00;;;;;;5056322;28;20934;-75
2022/07/20 02:08:06;;;;;;;6.57;5.63;;;21.40;1.00;;;;;;5055325;28;20508;-68
2022/07/20 02:10:32;;;;;;;6.17;5.57;;;21.40;1.00;;;;;;5056408;28;20946;-67
2022/07/20 02:12:58;;;;;;;6.50;5.57;;;21.30;1.00;;;;;;5056037;28;20405;-67
2022/07/20 02:18:11;;;;;;;6.63;5.40;;;21.40;1.00;;;;;;5056649;28;20225;-74
2022/07/20 02:20:38;;;;;;;8.20;5.60;;;21.40;1.00;;;;;;5055921;28;20437;-75
2022/07/20 02:23:06;;;;;;;5.50;4.93;;;21.30;1.00;;;;;;5054584;28;20417;-75
2022/07/20 02:25:32;;;;;;;5.90;5.40;;;21.30;1.00;;;;;;5055122;28;20432;-75
2022/07/20 02:27:59;;;;;;;6.40;5.07;;;21.30;1.00;;;;;;5056185;28;20409;-76
2022/07/20 02:30:25;;;;;;;5.60;5.10;;;21.30;1.00;;;;;;5056059;28;20409;-67
2022/07/20 02:33:00;;;;;;;;;;;;;;;;;;;;;
2022/07/20 02:35:27;;;;;;;8.67;5.60;;;21.30;1.00;;;;;;5055874;28;20432;-74
2022/07/20 02:37:53;;;;;;;6.53;5.10;;;21.30;1.00;;;;;;5054546;28;20413;-74
2022/07/20 02:40:19;;;;;;;6.40;5.50;;;21.30;1.00;;;;;;5055549;28;20417;-74
2022/07/20 02:42:45;;;;;;;7.43;5.40;;;21.30;1.00;;;;;;5055286;28;20497;-67
2022/07/20 02:45:11;;;;;;;6.90;5.40;;;21.30;1.00;;;;;;5055874;28;20497;-67
2022/07/20 02:47:45;;;;;;;8.00;5.97;;;21.20;1.00;;;;;;5055815;28;20169;-75
2022/07/20 02:50:12;;;;;;;7.83;5.70;;;21.20;1.00;;;;;;5055557;28;20413;-68
2022/07/20 02:52:39;;;;;;;5.50;4.97;;;21.20;1.00;;;;;;5055055;28;20488;-67
2022/07/20 02:55:06;;;;;;;6.57;5.93;;;21.20;1.00;;;;;;5054391;28;20429;-67
2022/07/20 02:57:32;;;;;;;7.27;5.40;;;21.20;1.00;;;;;;5055480;28;20452;-71
2022/07/20 02:59:58;;;;;;;13.93;6.17;;;21.20;1.00;;;;;;5055243;28;20401;-73
2022/07/20 03:02:24;;;;;;;6.20;5.60;;;21.20;1.00;;;;;;5054931;28;20479;-75
2022/07/20 03:04:50;;;;;;;10.83;5.93;;;21.20;1.00;;;;;;5055101;28;20444;-74
2022/07/20 03:07:19;;;;;;;6.10;5.07;;;21.20;1.00;;;;;;5055473;28;20417;-67
2022/07/20 03:09:45;;;;;;;5.50;5.00;;;21.20;1.00;;;;;;5054299;28;20414;-67
2022/07/20 03:12:11;;;;;;;6.50;5.43;;;21.10;1.00;;;;;;5054729;28;20456;-74
2022/07/20 03:14:37;;;;;;;5.83;5.23;;;21.10;1.00;;;;;;5054273;28;20217;-67
2022/07/20 03:17:03;;;;;;;6.03;5.30;;;21.10;1.00;;;;;;5053904;28;20179;-74
2022/07/20 03:19:29;;;;;;;6.63;5.63;;;21.10;1.00;;;;;;5055235;28;20171;-67
2022/07/20 03:21:55;;;;;;;6.00;5.40;;;21.10;1.00;;;;;;5055252;28;20397;-75
2022/07/20 03:24:21;;;;;;;6.33;5.73;;;21.20;1.00;;;;;;5053548;28;20425;-68
2022/07/20 03:26:47;;;;;;;6.10;5.50;;;21.20;1.00;;;;;;5054061;28;20417;-67
2022/07/20 03:29:13;;;;;;;7.30;5.50;;;21.20;1.00;;;;;;5055210;28;20413;-75
2022/07/20 03:31:39;;;;;;;6.27;5.67;;;21.20;1.00;;;;;;5053719;28;20269;-75
2022/07/20 03:34:07;;;;;;;6.30;5.63;;;21.20;1.00;;;;;;5053968;28;20199;-68
2022/07/20 03:43:15;;;;;;;5.30;4.80;;;21.10;1.00;;;;;;5054088;28;20408;-75
2022/07/20 03:45:41;;;;;;;5.40;4.87;;;21.20;1.00;;;;;;5054859;28;20398;-74
2022/07/20 03:48:08;;;;;;;7.27;5.10;;;21.10;1.00;;;;;;5054714;28;20496;-67
2022/07/20 03:50:34;;;;;;;6.53;5.80;;;21.20;1.00;;;;;;5054463;28;20445;-68
2022/07/20 03:53:00;;;;;;;9.20;5.50;;;21.20;1.00;;;;;;5052611;28;20939;-75
2022/07/20 03:55:25;;;;;;;8.70;5.40;;;21.20;1.00;;;;;;5054040;28;20425;-74
2022/07/20 03:57:51;;;;;;;6.60;5.90;;;21.20;1.00;;;;;;5054488;28;20471;-75
2022/07/20 04:00:21;;;;;;;7.97;5.93;;;21.20;1.00;;;;;;5054591;28;20433;-67
2022/07/20 04:02:47;;;;;;;6.63;5.57;;;21.30;1.00;;;;;;5052730;28;20500;-75
2022/07/20 04:05:13;;;;;;;9.83;6.00;;;21.30;1.00;;;;;;5054278;28;20437;-67
2022/07/20 04:07:39;;;;;;;5.40;4.80;;;21.30;1.00;;;;;;5054482;28;20405;-67
2022/07/20 04:10:05;;;;;;;6.33;5.73;;;21.30;1.00;;;;;;5053142;28;20756;-74
2022/07/20 04:12:31;;;;;;;9.93;5.87;;;21.30;1.00;;;;;;5052036;28;20464;-74
2022/07/20 04:14:56;;;;;;;7.83;5.70;;;21.30;1.00;;;;;;5053660;28;20818;-75
2022/07/20 04:17:23;;;;;;;6.37;5.47;;;21.30;1.00;;;;;;5053715;28;20258;-67
2022/07/20 04:19:49;;;;;;;6.73;5.47;;;21.40;1.00;;;;;;5054046;28;20252;-75
2022/07/20 04:22:15;;;;;;;6.33;5.53;;;21.40;1.00;;;;;;5052361;28;20421;-75
2022/07/20 04:24:41;;;;;;;9.90;5.50;;;21.40;1.00;;;;;;5052709;28;20611;-75
2022/07/20 04:27:07;;;;;;;6.13;5.53;;;21.40;1.00;;;;;;5053866;28;20931;-75
2022/07/20 04:29:36;;;;;;;8.03;5.27;;;21.40;1.00;;;;;;5053978;28;20568;-75
2022/07/20 04:32:02;;;;;;;6.20;5.37;;;21.40;1.00;;;;;;5052006;28;20453;-67
2022/07/20 04:34:28;;;;;;;7.13;5.23;;;21.40;1.00;;;;;;5053210;28;20463;-75
2022/07/20 04:36:54;;;;;;;10.30;7.20;;;21.40;1.00;;;;;;5053686;28;20790;-69
2022/07/20 04:39:20;;;;;;;6.23;5.63;;;21.40;1.00;;;;;;5053709;28;20174;-74
2022/07/20 04:41:46;;;;;;;6.57;5.40;;;21.50;1.00;;;;;;5052709;28;20471;-67
2022/07/20 04:44:12;;;;;;;6.63;5.90;;;21.50;1.00;;;;;;5052922;28;20498;-67
2022/07/20 04:46:38;;;;;;;6.60;5.70;;;21.60;1.00;;;;;;5053653;28;20240;-67
2022/07/20 04:49:04;;;;;;;8.73;6.30;;;21.60;1.00;;;;;;5053105;28;20179;-67
2022/07/20 04:51:30;;;;;;;5.30;4.87;;;21.70;1.00;;;;;;5053450;28;20464;-75
2022/07/20 04:53:56;;;;;;;8.43;6.40;;;21.70;1.00;;;;;;5052723;28;20421;-67
2022/07/20 04:56:22;;;;;;;8.17;5.20;;;21.70;1.00;;;;;;5053586;28;20413;-75
2022/07/20 04:58:50;;;;;;;6.27;4.90;;;21.80;1.00;;;;;;5053570;28;20190;-67
2022/07/20 05:01:16;;;;;;;6.33;5.70;;;21.80;1.00;;;;;;5053218;28;20175;-75
2022/07/20 05:03:42;;;;;;;5.67;4.67;;;21.80;1.00;;;;;;5052619;28;20914;-67
2022/07/20 05:06:08;;;;;;;6.30;5.33;;;21.90;1.00;;;;;;5053393;28;20455;-75
2022/07/20 05:08:34;;;;;;;5.50;4.97;;;21.90;1.00;;;;;;5052932;28;20460;-67
2022/07/20 05:11:00;;;;;;;8.50;6.00;;;22.00;1.00;;;;;;5053170;28;20464;-67
2022/07/20 05:13:25;;;;;;;9.60;6.30;;;22.00;1.00;;;;;;5052522;28;20181;-67
2022/07/20 05:15:51;;;;;;;7.07;6.33;;;22.00;1.00;;;;;;5053364;28;20259;-67
2022/07/20 05:18:17;;;;;;;6.20;5.63;;;22.00;1.00;;;;;;5053507;28;20195;-75
2022/07/20 05:20:43;;;;;;;6.10;5.57;;;22.10;1.00;;;;;;5053356;28;20178;-67
2022/07/20 05:23:08;;;;;;;5.67;5.17;;;22.10;1.00;;;;;;5052617;28;20175;-75
2022/07/20 05:25:38;;;;;;;6.97;6.27;;;22.10;1.00;;;;;;5052864;28;20233;-68
2022/07/20 05:28:04;;;;;;;5.50;4.77;;;22.20;1.00;;;;;;5054605;28;20170;-75
2022/07/20 05:30:30;;;;;;;7.83;6.40;;;22.30;1.00;;;;;;5057188;28;20882;-75
2022/07/20 05:32:56;;;;;;;6.27;5.63;;;22.30;1.00;;;;;;5055311;28;20413;-67
2022/07/20 05:35:22;;;;;;;11.57;5.80;;;22.30;1.00;;;;;;5056093;28;20225;-68
2022/07/20 05:37:48;;;;;;;6.70;5.10;;;22.30;1.00;;;;;;5057089;28;20171;-67
2022/07/20 05:40:13;;;;;;;8.80;6.30;;;22.40;1.00;;;;;;5057097;28;20251;-75
2022/07/20 05:42:39;;;;;;;5.87;5.03;;;22.50;1.00;;;;;;5056403;28;20635;-69
2022/07/20 05:45:25;;;;;;;7.00;6.30;;;22.50;1.00;;;;;;5055248;28;20244;-74
2022/07/20 05:48:32;;;;;;;7.13;5.60;;;22.60;1.00;;;;;;5056612;28;20253;-68
2022/07/20 05:50:58;;;;;;;9.23;5.80;;;22.60;1.00;;;;;;5055528;28;20460;-74
2022/07/20 05:53:25;;;;;;;9.00;5.27;;;22.70;1.00;;;;;;5056073;28;20492;-74
2022/07/20 05:55:51;;;;;;;12.37;5.37;;;22.80;1.00;;;;;;5056660;28;20389;-69
2022/07/20 05:58:16;;;;;;;8.00;5.90;;;22.80;1.00;;;;;;5055792;28;20423;-68
2022/07/20 06:00:42;;;;;;;9.13;6.87;;;22.90;1.00;;;;;;5056795;28;20175;-73
2022/07/20 06:03:08;;;;;;;8.70;6.03;;;23.00;1.00;;;;;;5055589;28;20217;-73
2022/07/20 06:05:34;;;;;;;7.43;4.60;;;23.10;1.00;;;;;;5056526;28;20190;-69
2022/07/20 06:08:02;;;;;;;7.43;5.50;;;23.10;1.00;;;;;;5056420;28;20774;-69
2022/07/20 06:10:30;;;;;;;6.50;5.83;;;23.20;1.00;;;;;;5055091;28;20964;-69
2022/07/20 06:12:57;;;;;;;6.70;5.90;;;23.20;1.00;;;;;;5055993;28;20410;-73
2022/07/20 06:15:25;;;;;;;6.37;5.70;;;23.30;1.00;;;;;;5055161;28;20444;-73
2022/07/20 06:17:52;;;;;;;8.27;6.17;;;23.40;1.00;;;;;;5056075;28;20397;-71
2022/07/20 06:20:18;;;;;;;10.47;6.17;;;23.40;1.00;;;;;;5056369;28;20413;-69
2022/07/20 06:22:44;;;;;;;6.70;5.90;;;23.50;1.00;;;;;;5054407;28;20914;-70
2022/07/20 06:25:12;;;;;;;6.00;5.43;;;23.60;1.00;;;;;;5056335;28;20421;-69
2022/07/20 06:27:38;;;;;;;8.20;5.90;;;23.70;1.00;;;;;;5056322;28;20920;-73
2022/07/20 06:30:05;;;;;;;7.30;6.50;;;23.80;1.00;;;;;;5056142;28;20409;-75
2022/07/20 06:32:31;;;;;;;15.03;8.33;;;23.80;1.00;;;;;;5055369;28;20480;-74
2022/07/20 06:34:57;;;;;;;8.53;6.27;;;23.90;1.00;;;;;;5056058;28;20496;-76
2022/07/20 06:37:22;;;;;;;9.30;6.00;;;24.00;1.00;;;;;;5055640;28;20505;-70
2022/07/20 06:39:48;;;;;;;5.43;4.93;;;24.10;1.00;;;;;;5055316;28;20525;-73
2022/07/20 06:42:16;;;;;;;9.80;6.13;;;24.20;1.00;;;;;;5055259;28;20182;-70
2022/07/20 06:44:42;;;;;;;6.90;6.10;;;24.30;1.00;;;;;;5055914;28;20425;-74
2022/07/20 06:47:08;;;;;;;9.63;5.87;;;24.40;1.00;;;;;;5055899;28;20401;-70
2022/07/20 06:49:34;;;;;;;6.70;4.90;;;24.40;1.00;;;;;;5055778;28;20407;-70
2022/07/20 06:51:59;;;;;;;6.40;5.80;;;24.50;1.00;;;;;;5055514;28;20233;-74
2022/07/20 06:54:26;;;;;;;5.80;5.30;;;24.50;1.00;;;;;;5054883;28;20513;-70
2022/07/20 06:56:52;;;;;;;8.53;5.30;;;24.60;1.00;;;;;;5055432;28;20182;-67
2022/07/20 06:59:18;;;;;;;7.37;5.97;;;24.70;1.00;;;;;;5055875;28;20766;-75
2022/07/20 07:01:43;;;;;;;5.90;5.40;;;24.70;1.00;;;;;;5055617;28;20250;-74
2022/07/20 07:04:09;;;;;;;7.30;5.97;;;24.80;1.00;;;;;;5053444;28;20571;-70
2022/07/20 07:06:35;;;;;;;7.20;6.37;;;24.90;1.00;;;;;;5054573;28;20175;-68
2022/07/20 07:09:01;;;;;;;8.50;4.83;;;25.00;1.00;;;;;;5055671;28;20189;-68
2022/07/20 07:11:27;;;;;;;10.80;6.90;;;25.00;1.00;;;;;;5054172;28;20556;-67
2022/07/20 07:13:53;;;;;;;6.03;5.50;;;25.10;1.00;;;;;;5053367;28;20199;-75
2022/07/20 07:16:18;;;;;;;8.13;6.13;;;25.20;1.00;;;;;;5055102;28;20889;-75
2022/07/20 07:18:44;;;;;;;5.97;5.13;;;25.20;1.00;;;;;;5055365;28;20651;-69
2022/07/20 07:21:10;;;;;;;11.80;5.50;;;25.40;1.00;;;;;;5054023;28;20421;-67
2022/07/20 07:23:36;;;;;;;7.13;5.00;;;25.40;1.00;;;;;;5053172;28;20202;-67
2022/07/20 07:26:02;;;;;;;6.93;5.70;;;25.40;1.00;;;;;;5055345;28;20175;-74
2022/07/20 07:28:27;;;;;;;6.90;5.10;;;25.50;1.00;;;;;;5054945;28;20610;-75
2022/07/20 07:30:53;;;;;;;6.87;5.10;;;25.60;1.00;;;;;;5054588;28;20199;-75
2022/07/20 07:33:24;;;;;;;9.03;5.50;;;25.70;1.00;;;;;;5054333;28;20167;-73
2022/07/20 07:35:50;;;;;;;5.63;4.73;;;25.80;1.00;;;;;;5055092;28;20167;-69
2022/07/20 07:38:15;;;;;;;5.37;4.87;;;25.90;1.00;;;;;;5053878;28;20451;-75
2022/07/20 07:40:42;;;;;;;5.93;5.33;;;26.00;1.00;;;;;;5053524;28;20179;-74
2022/07/20 07:43:07;;;;;;;6.67;5.90;;;26.10;1.00;;;;;;5053108;28;20182;-69
2022/07/20 07:45:33;;;;;;;9.57;6.37;;;26.20;1.00;;;;;;5054595;28;20782;-69
2022/07/20 07:47:59;;;;;;;7.00;5.70;;;26.20;1.00;;;;;;5053318;28;20727;-74
2022/07/20 07:50:24;;;;;;;6.87;5.30;;;26.30;1.00;;;;;;5053574;28;20265;-68
2022/07/20 07:52:50;;;;;;;5.50;5.10;;;26.40;1.00;;;;;;5052560;28;20171;-75
2022/07/20 07:55:16;;;;;;;5.93;5.40;;;26.50;1.00;;;;;;5054554;28;20588;-68
2022/07/20 07:57:42;;;;;;;6.53;4.80;;;26.60;1.00;;;;;;5053518;28;20249;-68
2022/07/20 08:00:08;;;;;;;6.63;5.17;;;26.70;1.00;;;;;;5053239;28;20170;-68
2022/07/20 08:02:34;;;;;;;5.83;5.07;;;26.90;1.00;;;;;;5053657;28;20405;-69
2022/07/20 08:05:00;;;;;;;6.73;5.33;;;26.90;1.00;;;;;;5054021;28;20516;-69
2022/07/20 08:07:26;;;;;;;7.10;5.73;;;27.00;1.00;;;;;;5053988;28;20481;-68
2022/07/20 08:09:51;;;;;;;7.80;5.90;;;27.20;1.00;;;;;;5054601;28;20349;-68
2022/07/20 08:12:17;;;;;;;6.17;5.67;;;27.30;1.00;;;;;;5052342;28;20198;-69
2022/07/20 08:14:43;;;;;;;6.00;5.27;;;27.40;1.00;;;;;;5054015;28;20277;-75
2022/07/20 08:17:09;;;;;;;6.70;5.40;;;27.50;1.00;;;;;;5054261;28;20174;-75
2022/07/20 08:19:34;;;;;;;6.57;5.40;;;27.60;1.00;;;;;;5052980;28;20175;-76
2022/07/20 08:22:00;;;;;;;5.73;5.23;;;27.60;1.00;;;;;;5053919;28;20171;-75
2022/07/20 08:24:26;;;;;;;7.13;5.30;;;27.70;1.00;;;;;;5053589;28;20191;-76
2022/07/20 08:26:51;;;;;;;7.30;6.00;;;27.80;1.00;;;;;;5052163;28;20174;-75
2022/07/20 08:29:17;;;;;;;5.27;4.83;;;27.90;1.00;;;;;;5053536;28;20254;-76
2022/07/20 08:31:43;;;;;;;6.30;5.70;;;28.00;1.00;;;;;;5052133;28;20202;-69
2022/07/20 08:34:09;;;;;;;6.80;5.17;;;28.10;1.00;;;;;;5052661;28;20190;-75
2022/07/20 08:36:35;;;;;;;6.50;5.07;;;28.20;1.00;;;;;;5052419;28;20182;-77
2022/07/20 08:39:01;;;;;;;5.83;5.33;;;28.40;1.00;;;;;;5051932;28;20175;-75
2022/07/20 08:41:27;;;;;;;5.83;5.33;;;28.40;1.00;;;;;;5053594;28;20401;-69
2022/07/20 08:43:53;;;;;;;6.70;5.80;;;28.50;1.00;;;;;;5052705;28;20214;-76
2022/07/20 08:46:21;;;;;;;4.90;4.50;;;28.60;1.00;;;;;;5052418;28;20802;-70
2022/07/20 08:48:49;;;;;;;5.93;5.43;;;28.70;1.00;;;;;;5052628;28;20178;-70
2022/07/20 08:51:14;;;;;;;5.53;5.03;;;28.80;1.00;;;;;;5052926;28;20448;-69
2022/07/20 08:53:40;;;;;;;5.67;4.90;;;29.00;1.00;;;;;;5052596;28;20417;-69
2022/07/20 08:56:06;;;;;;;6.53;5.60;;;29.20;1.00;;;;;;5053068;28;20193;-76
2022/07/20 08:58:32;;;;;;;7.73;5.50;;;29.20;1.00;;;;;;5053259;28;20183;-69
2022/07/20 09:00:57;;;;;;;8.17;4.73;;;29.30;1.00;;;;;;5053031;28;20175;-69
2022/07/20 09:03:23;;;;;;;6.37;5.73;;;29.50;1.00;;;;;;5051055;28;20194;-72
2022/07/20 09:06:03;;;;;;;7.60;5.20;;;29.70;1.00;;;;;;5053241;28;20683;-75
2022/07/20 09:08:28;;;;;;;7.40;5.60;;;29.80;1.00;;;;;;5052879;28;20262;-75
2022/07/20 09:10:54;;;;;;;8.57;5.27;;;29.90;1.00;;;;;;5052798;28;20535;-75
2022/07/20 09:13:31;;;;;;;9.33;5.47;;;30.10;1.00;;;;;;5052093;28;20202;-71
2022/07/20 09:15:57;;;;;;;6.30;5.70;;;30.40;1.00;;;;;;5052839;28;20418;-75
2022/07/20 09:18:28;;;;;;;6.13;5.53;;;30.60;1.00;;;;;;5051755;28;20401;-75
2022/07/20 09:21:05;;;;;;;6.23;4.97;;;30.70;1.00;;;;;;5053262;28;20170;-68
2022/07/20 09:23:52;;;;;;;8.40;5.33;;;30.90;1.00;;;;;;5051786;28;20412;-75
2022/07/20 09:26:18;;;;;;;6.33;5.63;;;31.10;1.00;;;;;;5053451;28;21121;-68
2022/07/20 09:28:49;;;;;;;5.50;5.00;;;31.40;1.00;;;;;;5053397;28;20963;-76
2022/07/20 09:31:18;;;;;;;10.73;6.13;;;31.60;1.00;;;;;;5053125;28;20198;-68
2022/07/20 09:33:51;;;;;;;5.20;4.80;;;31.80;1.00;;;;;;5052346;28;20479;-76
2022/07/20 09:36:19;;;;;;;6.13;4.70;;;32.00;1.00;;;;;;5053106;28;20913;-69
2022/07/20 09:38:45;;;;;;;8.40;4.50;;;32.30;1.00;;;;;;5053099;28;20393;-68
2022/07/20 09:41:29;;;;;;;5.43;4.93;;;32.40;1.00;;;;;;5053095;28;20834;-69
2022/07/20 09:43:57;;;;;;;4.97;4.40;;;32.60;1.00;;;;;;5051554;28;20240;-68
2022/07/20 09:46:30;;;;;;;5.80;4.80;;;32.80;1.00;;;;;;5053009;28;20778;-77
2022/07/20 09:48:58;;;;;;;5.23;4.83;;;33.00;1.00;;;;;;5052949;28;20409;-77
2022/07/20 09:51:32;;;;;;;10.53;5.00;;;33.00;1.00;;;;;;5052842;28;20445;-75
2022/07/20 09:54:03;;;;;;;9.10;6.00;;;33.20;1.00;;;;;;5052182;28;20432;-68
2022/07/20 09:56:30;;;;;;;5.27;4.57;;;33.40;1.00;;;;;;5053015;28;20770;-68
2022/07/20 09:58:57;;;;;;;5.10;4.53;;;33.60;1.00;;;;;;5052959;28;20430;-68
2022/07/20 10:01:26;;;;;;;6.07;4.57;;;34.00;1.00;;;;;;5052388;28;20462;-69
2022/07/20 10:03:54;;;;;;;8.90;5.20;;;34.10;1.00;;;;;;5051695;28;20426;-68
2022/07/20 10:06:22;;;;;;;5.47;4.97;;;34.30;1.00;;;;;;5052957;28;20413;-67
2022/07/20 10:08:49;;;;;;;7.13;4.40;;;34.60;1.00;;;;;;5052748;28;20409;-76
2022/07/20 10:11:17;;;;;;;8.87;4.87;;;34.80;1.00;;;;;;5052702;28;20465;-67
2022/07/20 10:13:44;;;;;;;5.00;4.50;;;34.90;1.00;;;;;;5052342;28;20498;-75
2022/07/20 10:16:28;;;;;;;5.67;5.10;;;35.10;1.00;;;;;;5055248;28;20777;-76
2022/07/20 10:18:56;;;;;;;5.90;4.40;;;35.20;1.00;;;;;;5055740;28;20859;-74
2022/07/20 10:21:41;;;;;;;4.60;4.10;;;35.40;1.00;;;;;;5056584;28;20408;-67
2022/07/20 10:24:14;;;;;;;8.97;5.03;;;35.80;1.00;;;;;;5055549;28;20425;-67
2022/07/20 10:26:40;;;;;;;5.57;5.07;;;36.20;1.00;;;;;;5056509;28;20401;-68
2022/07/20 10:29:06;;;;;;;5.10;4.70;;;36.40;1.00;;;;;;5056374;28;20731;-75
2022/07/20 10:31:54;;;;;;;6.47;5.20;;;36.50;1.00;;;;;;5056103;28;20455;-74
2022/07/20 10:34:41;;;;;;;5.60;4.90;;;36.60;1.00;;;;;;5055503;28;20182;-76
2022/07/20 10:37:18;;;;;;;5.30;4.80;;;36.70;1.00;;;;;;5054192;28;20462;-67
2022/07/20 10:39:48;;;;;;;6.03;5.40;;;36.70;1.00;;;;;;5056050;28;20404;-71
2022/07/20 10:42:20;;;;;;;5.00;4.60;;;36.80;1.00;;;;;;5055365;28;20737;-69
2022/07/20 10:44:46;;;;;;;6.47;5.97;;;37.10;1.00;;;;;;5055849;28;20424;-68
2022/07/20 10:47:44;;;;;;;4.80;4.30;;;37.30;1.00;;;;;;5055910;28;20424;-68
2022/07/20 10:50:18;;;;;;;5.07;4.57;;;37.60;1.00;;;;;;5055788;28;20232;-69
2022/07/20 10:52:45;;;;;;;5.90;5.40;;;37.80;1.00;;;;;;5054757;28;20448;-75
2022/07/20 10:55:34;;;;;;;7.60;4.87;;;37.90;99.90;;;;;;5055564;28;20431;-75
2022/07/20 10:58:03;;;;;;;6.20;5.60;;;38.00;99.90;;;;;;5055602;28;20436;-75
2022/07/20 11:00:30;;;;;;;5.23;4.77;;;38.00;99.90;;;;;;5055618;28;20416;-67
2022/07/20 11:03:00;;;;;;;6.10;4.73;;;38.00;99.90;;;;;;5055107;28;20397;-68
2022/07/20 11:05:26;;;;;;;8.23;5.13;;;38.20;99.90;;;;;;5055595;28;20432;-76
2022/07/20 11:07:52;;;;;;;5.07;4.67;;;38.40;99.90;;;;;;5055553;28;20483;-76
2022/07/20 11:10:25;;;;;;;5.70;5.20;;;38.20;99.90;;;;;;5055316;28;20578;-75
2022/07/20 11:12:56;;;;;;;5.50;4.97;;;37.70;99.90;;;;;;5054021;28;20480;-75
2022/07/20 11:15:23;;;;;;;5.70;4.60;;;37.20;1.00;;;;;;5055364;28;20419;-69
2022/07/20 11:17:48;;;;;;;4.90;4.37;;;36.80;1.00;;;;;;5055513;28;20392;-77
2022/07/20 11:20:17;;;;;;;5.63;4.50;;;36.50;1.00;;;;;;5055369;28;20381;-71
2022/07/20 11:22:44;;;;;;;5.63;5.13;;;36.40;1.00;;;;;;5054756;28;20162;-70
2022/07/20 11:25:10;;;;;;;5.63;5.13;;;36.10;1.00;;;;;;5054882;28;20477;-71
2022/07/20 11:27:35;;;;;;;9.30;4.97;;;36.10;1.00;;;;;;5055417;28;20393;-75
2022/07/20 11:30:01;;;;;;;7.43;5.97;;;36.20;1.00;;;;;;5054821;28;20178;-76
2022/07/20 11:32:27;;;;;;;5.10;4.53;;;36.10;1.00;;;;;;5054057;28;20713;-70
2022/07/20 11:34:53;;;;;;;7.20;5.00;;;36.10;1.00;;;;;;5055012;28;20194;-75
2022/07/20 11:37:21;;;;;;;15.67;6.20;;;36.00;1.00;;;;;;5055051;28;20693;-76
2022/07/20 11:39:47;;;;;;;5.90;4.70;;;36.10;1.00;;;;;;5055029;28;20480;-70
2022/07/20 11:42:15;;;;;;;5.43;4.93;;;36.10;1.00;;;;;;5054165;28;20416;-70
2022/07/20 11:44:57;;;;;;;6.30;4.90;;;36.20;1.00;;;;;;5054755;28;20420;-76
2022/07/20 11:47:22;;;;;;;5.27;4.77;;;36.20;1.00;;;;;;5054393;28;20496;-73
2022/07/20 11:49:48;;;;;;;5.47;5.07;;;36.30;1.00;;;;;;5054440;28;20428;-70
2022/07/20 11:52:14;;;;;;;9.17;6.47;;;36.30;1.00;;;;;;5054013;28;20198;-71
2022/07/20 11:54:39;;;;;;;7.30;5.30;;;36.40;1.00;;;;;;5054540;28;20702;-75
2022/07/20 11:57:06;;;;;;;5.93;5.50;;;36.40;99.90;;;;;;5054598;28;20166;-76
2022/07/20 11:59:32;;;;;;;5.30;4.80;;;36.40;99.90;;;;;;5054658;28;20249;-76
2022/07/20 12:02:00;;;;;;;6.57;5.97;;;36.50;1.00;;;;;;5054410;28;20407;-71
2022/07/20 12:04:27;;;;;;;7.53;4.83;;;36.60;1.00;;;;;;5053806;28;20420;-71
2022/07/20 12:06:55;;;;;;;5.60;5.10;;;36.70;1.00;;;;;;5053635;28;20400;-75
2022/07/20 12:09:31;;;;;;;10.50;5.73;;;36.80;1.00;;;;;;5054560;28;20404;-75
2022/07/20 12:12:08;;;;;;;6.70;4.67;;;36.90;99.90;;;;;;5054013;28;20832;-75
2022/07/20 12:14:39;;;;;;;7.73;4.97;;;36.90;99.90;;;;;;5052491;28;20439;-71
2022/07/20 12:17:24;;;;;;;5.80;4.47;;;36.90;99.90;;;;;;5054174;28;20401;-75
2022/07/20 12:19:53;;;;;;;5.40;5.00;;;37.00;99.90;;;;;;5054378;28;20389;-76
2022/07/20 12:22:27;;;;;;;8.43;4.97;;;37.10;99.90;;;;;;5053495;28;20405;-76
2022/07/20 12:24:58;;;;;;;5.13;4.83;;;37.20;99.90;;;;;;5053190;28;20428;-71
2022/07/20 12:27:26;;;;;;;6.27;4.97;;;37.40;99.90;;;;;;5054362;28;20885;-70
2022/07/20 12:29:52;;;;;;;8.53;5.30;;;37.70;99.90;;;;;;5054065;28;20467;-70
2022/07/20 12:32:31;;;;;;;6.27;5.20;;;38.10;99.90;;;;;;5053252;28;20448;-70
2022/07/20 12:34:58;;;;;;;5.50;4.93;;;38.90;99.90;;;;;;5053885;28;20270;-71
2022/07/20 12:37:24;;;;;;;7.33;5.20;;;40.00;99.90;;;;;;5053407;28;20488;-75
2022/07/20 12:39:53;;;;;;;4.80;4.50;;;40.90;1.00;;;;;;5053714;28;20433;-75
2022/07/20 12:42:29;;;;;;;6.00;5.40;;;41.40;99.90;;;;;;5052550;28;20181;-71
2022/07/20 12:45:06;;;;;;;8.60;5.20;;;41.70;99.90;;;;;;5053614;28;20186;-71
2022/07/20 12:47:32;;;;;;;5.73;5.17;;;41.60;99.90;;;;;;5052416;28;20650;-71
2022/07/20 12:49:57;;;;;;;5.13;4.63;;;41.60;99.90;;;;;;5052754;28;20182;-75
2022/07/20 12:52:24;;;;;;;4.87;4.47;;;41.60;99.90;;;;;;5052884;28;20201;-76
2022/07/20 12:54:50;;;;;;;5.33;4.83;;;41.50;99.90;;;;;;5053526;28;20193;-75
2022/07/20 12:57:19;;;;;;;6.20;5.20;;;41.40;99.90;;;;;;5053539;28;20273;-75
2022/07/20 12:59:46;;;;;;;5.10;4.68;;;41.10;99.90;;;;;;5051794;28;20194;-71
2022/07/20 13:02:13;;;;;;;7.43;4.95;;;40.70;99.90;;;;;;5052826;28;20232;-71
2022/07/20 13:04:39;;;;;;;7.70;5.22;;;40.50;99.90;;;;;;5053363;28;20237;-75
2022/07/20 13:07:05;;;;;;;6.00;5.43;;;40.30;99.90;;;;;;5053256;28;20635;-76
2022/07/20 13:09:31;;;;;;;6.28;4.60;;;40.10;99.90;;;;;;5053332;28;20166;-71
2022/07/20 13:11:57;;;;;;;5.93;5.00;;;39.80;99.90;;;;;;5053087;28;20571;-71
2022/07/20 13:14:25;;;;;;;5.28;4.78;;;39.70;99.90;;;;;;5052710;28;20182;-70